Edgeworth, Pennsylvania
Current Conditions -  °F | °C
As of 11:51 PM on Friday 28 Nov 2014 (Local Time) from KPIT Reporting Station
Overcast Overcast  
Wind Chill: 22°   Ceiling: 7000
Heat Index: 27°   Visibility: 10mi
Dew Point: 19°   Wind: 5mph
Humidity: 72%   Direction: 160°SSE
Pressure: 30.16"   Gusts: NA
Location:  40.5741°N, 80.1457°W
Report Text: KPIT 290451Z 16004KT 10SM OVC070 M03/M07 A3016 RMK AO2 SLP238 T10281072 410171056
Loading
Personal Weather Stations






























Interactive Weather Map New forecast layout! Learn more

10-Day Weather Forecast

Advertisements
Track Severe Weather on mobile